Time;durP1;ratioP1;P1;durP2;ratioP2;P2;SDS_P1;SDS_P2;PMS_P1;PMS_P2;Temp;Humidity;BMP_temperature;BMP_pressure;BME280_temperature;BME280_humidity;BME280_pressure;Samples;Min_cycle;Max_cycle;Signal;HPM_P1;HPM_P2
2020/12/15 00:06:22;;;;;;;4.27;3.23;;;;;;;;;;4142020;34;20133;-49
2020/12/15 00:08:48;;;;;;;4.50;3.42;;;;;;;;;;4149176;34;20134;-50
2020/12/15 00:11:17;;;;;;;5.72;3.30;;;;;;;;;;4144871;34;20531;-57
2020/12/15 00:13:45;;;;;;;5.00;3.55;;;;;;;;;;4141219;34;20197;-52
2020/12/15 00:16:12;;;;;;;6.32;3.83;;;;;;;;;;4141627;34;20107;-52
2020/12/15 00:18:38;;;;;;;5.80;3.70;;;;;;;;;;4123640;34;20119;-52
2020/12/15 00:21:04;;;;;;;5.28;3.65;;;;;;;;;;4143783;34;20118;-51
2020/12/15 00:23:29;;;;;;;4.18;3.55;;;;;;;;;;4135872;34;20124;-52
2020/12/15 00:25:55;;;;;;;5.35;4.05;;;;;;;;;;4123430;34;20115;-53
2020/12/15 00:28:21;;;;;;;4.60;3.42;;;;;;;;;;4135611;34;20112;-52
2020/12/15 00:30:47;;;;;;;4.45;3.37;;;;;;;;;;4142139;34;20463;-51
2020/12/15 00:33:13;;;;;;;7.20;3.90;;;;;;;;;;4136840;34;20116;-52
2020/12/15 00:35:39;;;;;;;5.97;3.70;;;;;;;;;;4149438;34;20133;-55
2020/12/15 00:38:05;;;;;;;6.22;3.42;;;;;;;;;;4149363;34;20595;-52
2020/12/15 00:40:30;;;;;;;5.78;3.60;;;;;;;;;;4140436;34;20135;-49
2020/12/15 00:42:56;;;;;;;4.65;3.42;;;;;;;;;;4149115;34;20095;-51
2020/12/15 00:45:22;;;;;;;5.65;3.75;;;;;;;;;;4148911;34;20579;-49
2020/12/15 00:47:48;;;;;;;6.10;3.90;;;;;;;;;;4126096;34;20103;-51
2020/12/15 00:50:14;;;;;;;6.07;3.75;;;;;;;;;;4138950;34;20131;-51
2020/12/15 00:52:40;;;;;;;6.97;4.10;;;;;;;;;;4141174;34;20128;-55
2020/12/15 00:55:05;;;;;;;4.90;3.28;;;;;;;;;;4139510;34;20243;-50
2020/12/15 00:57:31;;;;;;;6.32;3.72;;;;;;;;;;4127922;34;20204;-52
2020/12/15 00:59:58;;;;;;;5.68;2.90;;;;;;;;;;4150725;34;20095;-52
2020/12/15 01:02:24;;;;;;;5.78;3.40;;;;;;;;;;4150992;34;20135;-51
2020/12/15 01:04:50;;;;;;;4.50;3.53;;;;;;;;;;4147256;34;20146;-52
2020/12/15 01:07:16;;;;;;;5.78;4.03;;;;;;;;;;4137770;34;20123;-53
2020/12/15 01:09:42;;;;;;;7.25;3.83;;;;;;;;;;4137903;34;20532;-50
2020/12/15 01:12:10;;;;;;;7.45;4.20;;;;;;;;;;4151054;34;20100;-52
2020/12/15 01:14:36;;;;;;;6.00;3.85;;;;;;;;;;4138681;34;20166;-50
2020/12/15 01:17:02;;;;;;;8.13;4.25;;;;;;;;;;4138754;34;20119;-51
2020/12/15 01:19:27;;;;;;;7.97;3.85;;;;;;;;;;4150756;34;20200;-54
2020/12/15 01:21:53;;;;;;;8.68;4.18;;;;;;;;;;4150867;34;20488;-51
2020/12/15 01:24:21;;;;;;;6.47;3.85;;;;;;;;;;4150771;34;20532;-51
2020/12/15 01:26:47;;;;;;;9.27;4.40;;;;;;;;;;4138403;34;20125;-53
2020/12/15 01:29:13;;;;;;;9.82;3.87;;;;;;;;;;4150763;34;20539;-52
2020/12/15 01:31:39;;;;;;;5.75;4.05;;;;;;;;;;4150765;34;20242;-53
2020/12/15 01:34:05;;;;;;;10.48;4.78;;;;;;;;;;4150716;34;20107;-55
2020/12/15 01:36:31;;;;;;;8.95;4.43;;;;;;;;;;4151190;34;20134;-54
2020/12/15 01:38:57;;;;;;;6.45;3.70;;;;;;;;;;4147445;34;20159;-53
2020/12/15 01:41:23;;;;;;;10.73;3.95;;;;;;;;;;4135388;34;20218;-54
2020/12/15 01:44:07;;;;;;;5.95;3.90;;;;;;;;;;4149669;34;20130;-54
2020/12/15 01:46:33;;;;;;;6.07;3.90;;;;;;;;;;4150927;34;20148;-53
2020/12/15 01:49:06;;;;;;;7.10;3.70;;;;;;;;;;4127042;34;20206;-53
2020/12/15 01:51:46;;;;;;;8.50;3.80;;;;;;;;;;4148766;34;20247;-54
2020/12/15 01:54:15;;;;;;;6.47;3.60;;;;;;;;;;4125304;34;20114;-60
2020/12/15 01:56:59;;;;;;;6.80;3.83;;;;;;;;;;4149233;34;20103;-59
2020/12/15 01:59:25;;;;;;;5.93;3.60;;;;;;;;;;4150956;34;20131;-59
2020/12/15 02:02:22;;;;;;;6.57;4.12;;;;;;;;;;4138334;34;20126;-54
2020/12/15 02:05:13;;;;;;;16.42;4.57;;;;;;;;;;4140149;34;20103;-55
2020/12/15 02:07:47;;;;;;;13.20;4.25;;;;;;;;;;4129471;34;20487;-55
2020/12/15 02:10:34;;;;;;;9.05;5.80;;;;;;;;;;4140399;34;20123;-57
2020/12/15 02:13:25;;;;;;;5.55;3.60;;;;;;;;;;4109390;34;20179;-57
2020/12/15 02:15:51;;;;;;;8.80;3.87;;;;;;;;;;4146856;34;20103;-59
2020/12/15 02:18:17;;;;;;;7.30;3.70;;;;;;;;;;4151376;34;20106;-59
2020/12/15 02:20:43;;;;;;;10.27;4.00;;;;;;;;;;4164138;34;20766;-57
2020/12/15 02:23:09;;;;;;;6.50;3.55;;;;;;;;;;4164153;34;20106;-56
2020/12/15 02:25:35;;;;;;;16.37;4.37;;;;;;;;;;4163482;34;20190;-57
2020/12/15 02:28:01;;;;;;;5.70;3.50;;;;;;;;;;4164284;34;20110;-57
2020/12/15 02:30:27;;;;;;;9.32;3.70;;;;;;;;;;4162560;34;20463;-57
2020/12/15 02:32:52;;;;;;;6.28;3.55;;;;;;;;;;4159635;34;20103;-58
2020/12/15 02:35:19;;;;;;;5.05;3.85;;;;;;;;;;4156712;34;20130;-57
2020/12/15 02:37:44;;;;;;;5.47;3.87;;;;;;;;;;4163857;34;20149;-57
2020/12/15 02:40:10;;;;;;;9.68;4.32;;;;;;;;;;4163518;34;20544;-58
2020/12/15 02:42:36;;;;;;;7.32;3.90;;;;;;;;;;4163187;34;20110;-57
2020/12/15 02:45:02;;;;;;;6.97;3.80;;;;;;;;;;4159829;34;20102;-60
2020/12/15 02:47:28;;;;;;;5.95;4.05;;;;;;;;;;4163916;34;20110;-58
2020/12/15 02:49:54;;;;;;;7.97;3.75;;;;;;;;;;4163710;34;20146;-59
2020/12/15 02:52:20;;;;;;;9.07;3.55;;;;;;;;;;4158538;34;20484;-55
2020/12/15 02:54:49;;;;;;;5.18;3.35;;;;;;;;;;4163502;34;20548;-57
2020/12/15 02:57:16;;;;;;;7.05;3.92;;;;;;;;;;4163819;34;20194;-57
2020/12/15 02:59:44;;;;;;;8.45;3.30;;;;;;;;;;4155669;34;20114;-57
2020/12/15 03:02:10;;;;;;;10.02;3.95;;;;;;;;;;4159100;34;20119;-57
2020/12/15 03:04:36;;;;;;;13.10;3.75;;;;;;;;;;4160338;34;20467;-53
2020/12/15 03:07:04;;;;;;;6.30;3.83;;;;;;;;;;4162925;34;20126;-52
2020/12/15 03:09:30;;;;;;;10.20;4.12;;;;;;;;;;4162707;34;20190;-52
2020/12/15 03:11:57;;;;;;;14.85;3.83;;;;;;;;;;4159019;34;20091;-58
2020/12/15 03:14:23;;;;;;;9.20;3.95;;;;;;;;;;4162982;34;20141;-53
2020/12/15 03:16:50;;;;;;;7.47;4.00;;;;;;;;;;4148003;34;20137;-54
2020/12/15 03:19:16;;;;;;;9.30;3.80;;;;;;;;;;4158145;34;20539;-55
2020/12/15 03:21:41;;;;;;;10.32;3.47;;;;;;;;;;4160009;34;20142;-54
2020/12/15 03:24:07;;;;;;;10.82;3.60;;;;;;;;;;4160099;34;20137;-52
2020/12/15 03:26:33;;;;;;;7.50;3.60;;;;;;;;;;4160137;34;20146;-53
2020/12/15 03:28:59;;;;;;;13.48;3.97;;;;;;;;;;4160222;34;20219;-57
2020/12/15 03:31:25;;;;;;;6.97;3.47;;;;;;;;;;4148472;34;20472;-56
2020/12/15 03:33:51;;;;;;;11.07;4.10;;;;;;;;;;4162167;34;20119;-52
2020/12/15 03:36:17;;;;;;;12.40;4.40;;;;;;;;;;4161984;34;20136;-54
2020/12/15 03:38:43;;;;;;;10.60;4.10;;;;;;;;;;4149750;34;20126;-57
2020/12/15 03:41:10;;;;;;;9.20;4.30;;;;;;;;;;4161730;34;20549;-56
2020/12/15 03:43:36;;;;;;;16.27;4.28;;;;;;;;;;4162401;34;20131;-58
2020/12/15 03:46:02;;;;;;;9.38;4.00;;;;;;;;;;4163265;34;20134;-59
2020/12/15 03:48:27;;;;;;;20.15;5.12;;;;;;;;;;4162887;34;20122;-58
2020/12/15 03:50:54;;;;;;;18.73;4.37;;;;;;;;;;4161537;34;20126;-58
2020/12/15 03:53:20;;;;;;;22.05;5.18;;;;;;;;;;4161758;34;20857;-57
2020/12/15 03:55:47;;;;;;;11.50;4.03;;;;;;;;;;4160382;34;20126;-58
2020/12/15 03:58:15;;;;;;;18.67;4.30;;;;;;;;;;4161885;34;20098;-58
2020/12/15 04:00:41;;;;;;;15.23;4.35;;;;;;;;;;4160016;34;20114;-58
2020/12/15 04:03:07;;;;;;;13.27;4.20;;;;;;;;;;4146621;34;20524;-57
2020/12/15 04:05:33;;;;;;;12.32;4.65;;;;;;;;;;4147490;34;20131;-58
2020/12/15 04:07:58;;;;;;;14.30;5.00;;;;;;;;;;4148667;34;20202;-57
2020/12/15 04:10:24;;;;;;;16.37;4.00;;;;;;;;;;4161234;34;20153;-57
2020/12/15 04:12:50;;;;;;;15.40;4.45;;;;;;;;;;4161165;34;20135;-57
2020/12/15 04:15:16;;;;;;;10.02;4.07;;;;;;;;;;4160328;34;20491;-57
2020/12/15 04:17:42;;;;;;;13.13;4.35;;;;;;;;;;4162882;34;20123;-57
2020/12/15 04:20:09;;;;;;;15.50;4.55;;;;;;;;;;4163173;34;20123;-57
2020/12/15 04:22:35;;;;;;;12.77;5.00;;;;;;;;;;4162986;34;20107;-56
2020/12/15 04:25:01;;;;;;;10.88;4.15;;;;;;;;;;4150275;34;20114;-58
2020/12/15 04:27:27;;;;;;;12.18;4.12;;;;;;;;;;4163018;34;20099;-57
2020/12/15 04:29:53;;;;;;;17.35;6.97;;;;;;;;;;4164187;34;20107;-56
2020/12/15 04:32:19;;;;;;;16.92;5.68;;;;;;;;;;4165179;34;20496;-56
2020/12/15 04:34:45;;;;;;;12.20;4.35;;;;;;;;;;4165063;34;20210;-57
2020/12/15 04:37:11;;;;;;;15.55;4.28;;;;;;;;;;4165289;34;20456;-57
2020/12/15 04:39:37;;;;;;;8.80;4.03;;;;;;;;;;4164856;34;20303;-58
2020/12/15 04:42:03;;;;;;;14.30;4.70;;;;;;;;;;4165045;34;20550;-57
2020/12/15 04:44:28;;;;;;;12.63;4.60;;;;;;;;;;4164888;34;20111;-57
2020/12/15 04:47:18;;;;;;;8.20;4.70;;;;;;;;;;4164940;34;20495;-57
2020/12/15 04:50:04;;;;;;;11.30;5.18;;;;;;;;;;4152424;34;20146;-57
2020/12/15 04:52:58;;;;;;;21.37;4.50;;;;;;;;;;4163787;34;20203;-57
2020/12/15 04:55:25;;;;;;;9.40;4.43;;;;;;;;;;4165150;34;20210;-57
2020/12/15 04:57:51;;;;;;;13.82;4.90;;;;;;;;;;4165151;34;20510;-57
2020/12/15 05:00:17;;;;;;;17.85;4.78;;;;;;;;;;4163324;34;20470;-58
2020/12/15 05:02:44;;;;;;;17.87;5.20;;;;;;;;;;4163827;34;20098;-57
2020/12/15 05:05:10;;;;;;;13.90;4.97;;;;;;;;;;4164949;34;20129;-58
2020/12/15 05:07:43;;;;;;;18.12;5.10;;;;;;;;;;4164811;34;20196;-57
2020/12/15 05:10:13;;;;;;;21.85;6.75;;;;;;;;;;4164775;34;20117;-56
2020/12/15 05:12:43;;;;;;;10.20;4.50;;;;;;;;;;4164579;34;20558;-58
2020/12/15 05:15:09;;;;;;;9.55;4.28;;;;;;;;;;4164500;34;20164;-57
2020/12/15 05:17:35;;;;;;;17.90;4.40;;;;;;;;;;4164710;34;20564;-58
2020/12/15 05:20:04;;;;;;;13.20;4.90;;;;;;;;;;4164619;34;20130;-58
2020/12/15 05:22:43;;;;;;;11.80;5.18;;;;;;;;;;4164706;34;20211;-57
2020/12/15 05:25:22;;;;;;;17.50;4.75;;;;;;;;;;4163612;34;20087;-57
2020/12/15 05:27:47;;;;;;;19.48;5.37;;;;;;;;;;4164493;34;20483;-58
2020/12/15 05:30:13;;;;;;;17.67;5.72;;;;;;;;;;4164716;34;20095;-58
2020/12/15 05:32:53;;;;;;;8.45;4.07;;;;;;;;;;4164643;34;20231;-58
2020/12/15 05:35:33;;;;;;;10.70;4.22;;;;;;;;;;4164487;34;20106;-57
2020/12/15 05:38:25;;;;;;;11.88;4.72;;;;;;;;;;4164470;34;20264;-58
2020/12/15 05:40:52;;;;;;;13.02;4.57;;;;;;;;;;4163941;34;20451;-57
2020/12/15 05:43:24;;;;;;;11.18;3.92;;;;;;;;;;4163056;34;20115;-57
2020/12/15 05:45:50;;;;;;;13.82;4.35;;;;;;;;;;4164236;34;20107;-57
2020/12/15 05:48:16;;;;;;;14.70;5.05;;;;;;;;;;4162848;34;20115;-57
2020/12/15 05:50:42;;;;;;;6.70;4.55;;;;;;;;;;4162992;34;20118;-57
2020/12/15 05:53:09;;;;;;;10.60;5.80;;;;;;;;;;4164250;34;20111;-57
2020/12/15 05:55:34;;;;;;;9.30;5.35;;;;;;;;;;4164352;34;20123;-57
2020/12/15 05:58:01;;;;;;;12.98;5.37;;;;;;;;;;4164175;34;20527;-57
2020/12/15 06:00:28;;;;;;;7.50;4.53;;;;;;;;;;4164158;34;20201;-57
2020/12/15 06:03:00;;;;;;;9.25;4.55;;;;;;;;;;4164123;34;20217;-57
2020/12/15 06:05:28;;;;;;;6.75;4.50;;;;;;;;;;4164323;34;20546;-57
2020/12/15 06:07:55;;;;;;;6.12;3.90;;;;;;;;;;4163998;34;20129;-58
2020/12/15 06:10:21;;;;;;;9.60;4.20;;;;;;;;;;4164277;34;20536;-57
2020/12/15 06:12:50;;;;;;;11.07;4.72;;;;;;;;;;4164048;34;20162;-59
2020/12/15 06:15:17;;;;;;;9.15;4.22;;;;;;;;;;4164029;34;20227;-58
2020/12/15 06:17:51;;;;;;;11.75;4.62;;;;;;;;;;4164016;34;20170;-58
2020/12/15 06:20:19;;;;;;;10.98;4.82;;;;;;;;;;4163989;34;20130;-58
2020/12/15 06:22:46;;;;;;;15.52;4.15;;;;;;;;;;4163953;34;20488;-58
2020/12/15 06:25:24;;;;;;;11.90;4.30;;;;;;;;;;4162485;34;20447;-59
2020/12/15 06:28:07;;;;;;;6.57;4.05;;;;;;;;;;4163992;34;20443;-58
2020/12/15 06:30:35;;;;;;;10.73;5.07;;;;;;;;;;4163888;34;20118;-58
2020/12/15 06:33:05;;;;;;;13.93;5.40;;;;;;;;;;4163823;34;20166;-58
2020/12/15 06:35:31;;;;;;;9.70;4.40;;;;;;;;;;4162544;34;20107;-58
2020/12/15 06:37:58;;;;;;;9.48;5.22;;;;;;;;;;4164075;34;20126;-58
2020/12/15 06:40:25;;;;;;;13.80;4.78;;;;;;;;;;4163598;34;20534;-58
2020/12/15 06:42:54;;;;;;;9.52;4.10;;;;;;;;;;4163869;34;20111;-58
2020/12/15 06:45:22;;;;;;;10.50;4.00;;;;;;;;;;4163986;34;20099;-58
2020/12/15 06:48:02;;;;;;;7.10;3.70;;;;;;;;;;4163682;34;20130;-58
2020/12/15 06:50:28;;;;;;;10.68;4.47;;;;;;;;;;4163542;34;20106;-58
2020/12/15 06:52:54;;;;;;;12.43;4.45;;;;;;;;;;4163025;34;20139;-58
2020/12/15 06:55:30;;;;;;;10.88;3.83;;;;;;;;;;4162356;34;20231;-57
2020/12/15 06:57:59;;;;;;;;;;;;;;;;;;4164378;34;20161;-57
2020/12/15 07:00:32;;;;;;;12.50;4.47;;;;;;;;;;4163502;34;20026;-58
2020/12/15 07:02:58;;;;;;;6.97;5.47;;;;;;;;;;4163940;34;20185;-57
2020/12/15 07:05:25;;;;;;;10.27;5.22;;;;;;;;;;4162235;34;20149;-57
2020/12/15 07:08:05;;;;;;;10.23;4.55;;;;;;;;;;4163322;34;20107;-58
2020/12/15 07:10:31;;;;;;;12.10;4.97;;;;;;;;;;4163767;34;20198;-58
2020/12/15 07:12:59;;;;;;;14.90;5.78;;;;;;;;;;4163599;34;20122;-58
2020/12/15 07:15:29;;;;;;;9.88;6.43;;;;;;;;;;4163398;34;20195;-57
2020/12/15 07:17:55;;;;;;;14.40;5.75;;;;;;;;;;4163539;34;20115;-57
2020/12/15 07:20:22;;;;;;;12.82;6.22;;;;;;;;;;4163606;34;20136;-58
2020/12/15 07:22:48;;;;;;;14.52;6.35;;;;;;;;;;4163520;34;20093;-58
2020/12/15 07:25:14;;;;;;;12.40;5.10;;;;;;;;;;4162415;34;20107;-58
2020/12/15 07:27:41;;;;;;;8.77;4.68;;;;;;;;;;4163660;34;20107;-58
2020/12/15 07:30:10;;;;;;;8.32;5.20;;;;;;;;;;4161982;34;20182;-57
2020/12/15 07:32:37;;;;;;;10.90;5.87;;;;;;;;;;4163676;34;20114;-57
2020/12/15 07:35:08;;;;;;;9.07;5.93;;;;;;;;;;4163371;34;20115;-58
2020/12/15 07:37:41;;;;;;;13.60;6.72;;;;;;;;;;4163659;34;20145;-58
2020/12/15 07:40:11;;;;;;;9.32;6.12;;;;;;;;;;4163181;34;20094;-58
2020/12/15 07:42:37;;;;;;;15.40;6.20;;;;;;;;;;4163541;34;20099;-57
2020/12/15 07:45:06;;;;;;;15.05;6.20;;;;;;;;;;4163334;34;20117;-58
2020/12/15 07:47:42;;;;;;;18.30;6.32;;;;;;;;;;4163236;34;20106;-58
2020/12/15 07:50:08;;;;;;;;;;;;;;;;;;4163254;34;20171;-58
2020/12/15 07:52:35;;;;;;;12.65;5.10;;;;;;;;;;4163407;34;19994;-57
2020/12/15 07:55:05;;;;;;;9.73;4.68;;;;;;;;;;4161665;34;20616;-58
2020/12/15 07:57:32;;;;;;;11.25;5.25;;;;;;;;;;4163054;34;20107;-58
2020/12/15 08:00:17;;;;;;;13.55;6.85;;;;;;;;;;4162771;34;20139;-63
2020/12/15 08:02:48;;;;;;;10.10;6.70;;;;;;;;;;4151308;34;20199;-57
2020/12/15 08:05:24;;;;;;;14.80;6.68;;;;;;;;;;4167612;34;20133;-55
2020/12/15 08:07:51;;;;;;;12.68;6.32;;;;;;;;;;4167677;34;20128;-59
2020/12/15 08:10:28;;;;;;;14.45;6.57;;;;;;;;;;4166212;34;20106;-58
2020/12/15 08:13:02;;;;;;;15.73;5.57;;;;;;;;;;4166408;34;20154;-58
2020/12/15 08:15:28;;;;;;;12.80;5.57;;;;;;;;;;4166131;34;20129;-58
2020/12/15 08:17:54;;;;;;;10.13;4.82;;;;;;;;;;4165854;34;20117;-58
2020/12/15 08:20:26;;;;;;;11.95;6.25;;;;;;;;;;4166268;34;20130;-57
2020/12/15 08:23:12;;;;;;;9.95;4.93;;;;;;;;;;4167365;34;20483;-55
2020/12/15 08:25:44;;;;;;;14.20;5.37;;;;;;;;;;4167476;34;20094;-55
2020/12/15 08:28:11;;;;;;;13.68;8.60;;;;;;;;;;4167559;34;20613;-55
2020/12/15 08:30:38;;;;;;;12.98;5.85;;;;;;;;;;4166042;34;20122;-58
2020/12/15 08:33:04;;;;;;;14.02;6.43;;;;;;;;;;4167314;34;20114;-57
2020/12/15 08:35:30;;;;;;;12.48;5.62;;;;;;;;;;4167275;34;20572;-58
2020/12/15 08:38:03;;;;;;;8.98;4.47;;;;;;;;;;4167277;34;20210;-58
2020/12/15 08:40:29;;;;;;;11.10;5.12;;;;;;;;;;4167037;34;20149;-58
2020/12/15 08:42:58;;;;;;;17.62;5.00;;;;;;;;;;4166024;34;20197;-58
2020/12/15 08:45:27;;;;;;;8.52;5.03;;;;;;;;;;4167332;34;20193;-59
2020/12/15 08:47:54;;;;;;;14.43;5.12;;;;;;;;;;4165979;34;20094;-57
2020/12/15 08:50:20;;;;;;;11.10;4.97;;;;;;;;;;4167176;34;20119;-60
2020/12/15 08:52:47;;;;;;;17.50;4.75;;;;;;;;;;4165975;34;20118;-59
2020/12/15 08:55:13;;;;;;;13.52;5.57;;;;;;;;;;4167263;34;20119;-59
2020/12/15 08:57:39;;;;;;;12.27;5.28;;;;;;;;;;4167205;34;20531;-61
2020/12/15 09:00:15;;;;;;;9.18;4.72;;;;;;;;;;4166853;34;20209;-59
2020/12/15 09:02:42;;;;;;;15.98;5.25;;;;;;;;;;4166905;34;20124;-60
2020/12/15 09:05:10;;;;;;;13.05;4.90;;;;;;;;;;4166807;34;20099;-58
2020/12/15 09:07:37;;;;;;;20.05;5.72;;;;;;;;;;4166992;34;20137;-58
2020/12/15 09:10:09;;;;;;;17.27;5.80;;;;;;;;;;4163292;34;20106;-57
2020/12/15 09:12:36;;;;;;;13.00;5.60;;;;;;;;;;4166608;34;20259;-60
2020/12/15 09:15:03;;;;;;;12.35;5.35;;;;;;;;;;4154561;34;20122;-60
2020/12/15 09:17:29;;;;;;;11.98;6.07;;;;;;;;;;4164925;34;20110;-60
2020/12/15 09:19:55;;;;;;;23.33;6.15;;;;;;;;;;4164177;34;20111;-59
2020/12/15 09:22:21;;;;;;;12.05;5.32;;;;;;;;;;4164411;34;20103;-59
2020/12/15 09:24:47;;;;;;;11.77;5.20;;;;;;;;;;4164130;34;20241;-60
2020/12/15 09:27:23;;;;;;;9.88;4.93;;;;;;;;;;4164548;34;20122;-60
2020/12/15 09:29:49;;;;;;;12.02;4.72;;;;;;;;;;4164123;34;20114;-60
2020/12/15 09:32:17;;;;;;;15.48;5.45;;;;;;;;;;4164550;34;20234;-55
2020/12/15 09:34:44;;;;;;;9.63;5.75;;;;;;;;;;4162074;34;20121;-57
2020/12/15 09:37:10;;;;;;;10.93;5.85;;;;;;;;;;4164552;34;20286;-57
2020/12/15 09:39:35;;;;;;;13.88;5.53;;;;;;;;;;4163985;34;20138;-59
2020/12/15 09:42:03;;;;;;;13.52;6.00;;;;;;;;;;4164285;34;20114;-60
2020/12/15 09:44:29;;;;;;;13.25;5.37;;;;;;;;;;4163994;34;20099;-60
2020/12/15 09:46:58;;;;;;;12.95;6.40;;;;;;;;;;4162984;34;20102;-61
2020/12/15 09:49:25;;;;;;;17.67;10.27;;;;;;;;;;4163127;34;20237;-59
2020/12/15 09:51:51;;;;;;;15.68;6.90;;;;;;;;;;4162787;34;20111;-60
2020/12/15 09:54:16;;;;;;;14.32;8.20;;;;;;;;;;4163939;34;20138;-60
2020/12/15 09:56:44;;;;;;;14.45;6.18;;;;;;;;;;4164423;34;20115;-60
2020/12/15 09:59:10;;;;;;;11.48;6.10;;;;;;;;;;4164274;34;20130;-59
2020/12/15 10:01:39;;;;;;;16.75;5.87;;;;;;;;;;4163064;34;20527;-59
2020/12/15 10:04:05;;;;;;;19.45;6.07;;;;;;;;;;4164134;34;20149;-60
2020/12/15 10:06:31;;;;;;;14.18;5.93;;;;;;;;;;4163704;34;20131;-60
2020/12/15 10:08:57;;;;;;;17.50;6.50;;;;;;;;;;4163834;34;20122;-59
2020/12/15 10:11:25;;;;;;;15.77;6.65;;;;;;;;;;4172540;34;20157;-60
2020/12/15 10:13:51;;;;;;;11.85;5.68;;;;;;;;;;4163949;34;20113;-60
2020/12/15 10:16:17;;;;;;;12.90;5.87;;;;;;;;;;4177827;34;20106;-59
2020/12/15 10:18:43;;;;;;;12.60;6.37;;;;;;;;;;4177548;34;20107;-59
2020/12/15 10:21:09;;;;;;;13.07;6.68;;;;;;;;;;4177432;34;20154;-59
2020/12/15 10:23:37;;;;;;;20.75;7.10;;;;;;;;;;4177281;34;20214;-60
2020/12/15 10:26:03;;;;;;;18.02;6.05;;;;;;;;;;4177028;34;20165;-61
2020/12/15 10:28:30;;;;;;;15.32;6.75;;;;;;;;;;4176917;34;20138;-60
2020/12/15 10:30:56;;;;;;;15.38;6.40;;;;;;;;;;4164639;34;20118;-61
2020/12/15 10:33:22;;;;;;;12.90;5.70;;;;;;;;;;4177251;34;20097;-60
2020/12/15 10:35:48;;;;;;;15.30;5.68;;;;;;;;;;4164479;34;20187;-60
2020/12/15 10:38:14;;;;;;;17.75;6.30;;;;;;;;;;4177494;34;20121;-60
2020/12/15 10:40:40;;;;;;;12.13;6.10;;;;;;;;;;4176896;34;20157;-62
2020/12/15 10:43:06;;;;;;;15.80;5.62;;;;;;;;;;4177194;34;20105;-65
2020/12/15 10:45:32;;;;;;;11.65;5.45;;;;;;;;;;4164304;34;20542;-61
2020/12/15 10:48:01;;;;;;;15.32;6.70;;;;;;;;;;4177307;34;20113;-63
2020/12/15 10:50:27;;;;;;;11.32;5.82;;;;;;;;;;4177255;34;20106;-60
2020/12/15 10:52:54;;;;;;;17.75;5.85;;;;;;;;;;4167744;34;20645;-63
2020/12/15 10:55:20;;;;;;;13.30;6.07;;;;;;;;;;4169740;34;20130;-62
2020/12/15 10:57:46;;;;;;;18.50;6.82;;;;;;;;;;4177458;34;20126;-62
2020/12/15 11:00:12;;;;;;;13.52;5.22;;;;;;;;;;4176926;34;20487;-63
2020/12/15 11:02:38;;;;;;;13.57;6.05;;;;;;;;;;4177200;34;20130;-62
2020/12/15 11:05:03;;;;;;;10.73;5.60;;;;;;;;;;4176675;34;20225;-61
2020/12/15 11:07:29;;;;;;;13.25;5.65;;;;;;;;;;4177278;34;20156;-63
2020/12/15 11:09:55;;;;;;;12.75;6.30;;;;;;;;;;4168765;34;20538;-62
2020/12/15 11:12:21;;;;;;;15.20;5.85;;;;;;;;;;4177149;34;20133;-63
2020/12/15 11:14:47;;;;;;;14.00;5.87;;;;;;;;;;4176585;34;20194;-63
2020/12/15 11:17:13;;;;;;;12.65;5.35;;;;;;;;;;4177366;34;20103;-61
2020/12/15 11:19:39;;;;;;;12.63;7.50;;;;;;;;;;4176955;34;20153;-61
2020/12/15 11:22:05;;;;;;;14.93;5.78;;;;;;;;;;4177112;34;20591;-63
2020/12/15 11:24:31;;;;;;;13.73;5.78;;;;;;;;;;4176622;34;20217;-64
2020/12/15 11:26:57;;;;;;;12.52;5.72;;;;;;;;;;4177081;34;20205;-62
2020/12/15 11:29:23;;;;;;;10.45;5.90;;;;;;;;;;4176581;34;20133;-60
2020/12/15 11:31:50;;;;;;;14.02;6.05;;;;;;;;;;4177165;34;20226;-61
2020/12/15 11:34:15;;;;;;;15.40;5.68;;;;;;;;;;4176778;34;20215;-60
2020/12/15 11:36:41;;;;;;;15.48;6.00;;;;;;;;;;4176957;34;20111;-61
2020/12/15 11:39:07;;;;;;;10.60;5.80;;;;;;;;;;4176525;34;20126;-58
2020/12/15 11:41:34;;;;;;;10.45;5.35;;;;;;;;;;4176783;34;20145;-60
2020/12/15 11:44:00;;;;;;;11.10;5.75;;;;;;;;;;4176727;34;20134;-60
2020/12/15 11:46:27;;;;;;;11.35;5.85;;;;;;;;;;4176906;34;20102;-61
2020/12/15 11:48:53;;;;;;;13.00;6.70;;;;;;;;;;4177069;34;20098;-61
2020/12/15 11:51:19;;;;;;;17.42;7.90;;;;;;;;;;4176710;34;20206;-61
2020/12/15 11:53:47;;;;;;;15.02;6.65;;;;;;;;;;4162680;34;20518;-62
2020/12/15 11:56:19;;;;;;;11.12;5.87;;;;;;;;;;4174681;34;20612;-62
2020/12/15 11:58:45;;;;;;;11.77;6.07;;;;;;;;;;4176938;34;20458;-62
2020/12/15 12:01:11;;;;;;;8.77;5.70;;;;;;;;;;4176271;34;20188;-62
2020/12/15 12:03:37;;;;;;;15.00;6.10;;;;;;;;;;4176509;34;20126;-60
2020/12/15 12:06:03;;;;;;;13.73;5.95;;;;;;;;;;4176561;34;20114;-62
2020/12/15 12:08:29;;;;;;;13.98;5.82;;;;;;;;;;4172852;34;20195;-60
2020/12/15 12:10:55;;;;;;;9.23;5.37;;;;;;;;;;4173083;34;20327;-63
2020/12/15 12:13:21;;;;;;;17.95;5.97;;;;;;;;;;4176673;34;20189;-61
2020/12/15 12:15:47;;;;;;;13.88;5.65;;;;;;;;;;4176341;34;20597;-60
2020/12/15 12:18:12;;;;;;;21.67;5.70;;;;;;;;;;4176744;34;20114;-67
2020/12/15 12:20:38;;;;;;;10.85;5.80;;;;;;;;;;4176302;34;20141;-61
2020/12/15 12:23:05;;;;;;;14.87;5.93;;;;;;;;;;4176437;34;20127;-65
2020/12/15 12:25:31;;;;;;;11.32;5.72;;;;;;;;;;4176361;34;20119;-63
2020/12/15 12:27:57;;;;;;;17.17;6.40;;;;;;;;;;4176545;34;20180;-63
2020/12/15 12:30:23;;;;;;;14.98;7.10;;;;;;;;;;4176285;34;20133;-63
2020/12/15 12:32:49;;;;;;;14.98;6.03;;;;;;;;;;4176760;34;20119;-64
2020/12/15 12:35:16;;;;;;;12.48;5.75;;;;;;;;;;4175974;34;20498;-62
2020/12/15 12:37:42;;;;;;;14.85;6.87;;;;;;;;;;4176530;34;20106;-62
2020/12/15 12:40:08;;;;;;;21.73;6.65;;;;;;;;;;4176135;34;20140;-63
2020/12/15 12:42:33;;;;;;;12.90;5.45;;;;;;;;;;4176484;34;20114;-63
2020/12/15 12:44:59;;;;;;;16.10;6.60;;;;;;;;;;4176121;34;20523;-63
2020/12/15 12:47:25;;;;;;;15.57;7.70;;;;;;;;;;4175931;34;20532;-63
2020/12/15 12:49:51;;;;;;;13.13;6.35;;;;;;;;;;4176272;34;20130;-63
2020/12/15 12:52:17;;;;;;;14.68;6.75;;;;;;;;;;4172984;34;20099;-63
2020/12/15 12:54:43;;;;;;;20.58;6.93;;;;;;;;;;4167728;34;20482;-62
2020/12/15 12:57:09;;;;;;;14.35;6.07;;;;;;;;;;4178423;34;20295;-64
2020/12/15 12:59:35;;;;;;;11.77;6.32;;;;;;;;;;4178062;34;20463;-62
2020/12/15 13:02:01;;;;;;;12.25;5.70;;;;;;;;;;4178326;34;20221;-63
2020/12/15 13:04:28;;;;;;;12.00;6.75;;;;;;;;;;4178158;34;20199;-62
2020/12/15 13:06:54;;;;;;;13.88;5.90;;;;;;;;;;4178346;34;20519;-62
2020/12/15 13:09:21;;;;;;;12.82;6.10;;;;;;;;;;4170085;34;20193;-61
2020/12/15 13:11:48;;;;;;;12.20;6.05;;;;;;;;;;4177912;34;20098;-62
2020/12/15 13:14:18;;;;;;;14.00;6.20;;;;;;;;;;4169709;34;20149;-62
2020/12/15 13:16:44;;;;;;;14.40;6.87;;;;;;;;;;4164867;34;20110;-63
2020/12/15 13:19:10;;;;;;;13.30;6.47;;;;;;;;;;4164379;34;20130;-60
2020/12/15 13:21:39;;;;;;;11.15;6.45;;;;;;;;;;4164436;34;20142;-59
2020/12/15 13:24:06;;;;;;;13.15;6.30;;;;;;;;;;4164022;34;20537;-59
2020/12/15 13:26:32;;;;;;;11.27;6.30;;;;;;;;;;4162882;34;20517;-61
2020/12/15 13:28:58;;;;;;;19.00;7.82;;;;;;;;;;4164434;34;20121;-64
2020/12/15 13:31:24;;;;;;;13.77;6.70;;;;;;;;;;4162957;34;20106;-62
2020/12/15 13:33:49;;;;;;;7.80;5.80;;;;;;;;;;4164158;34;20175;-61
2020/12/15 13:36:16;;;;;;;21.48;6.93;;;;;;;;;;4164329;34;20134;-60
2020/12/15 13:38:41;;;;;;;17.00;7.75;;;;;;;;;;4164415;34;20133;-60
2020/12/15 13:41:08;;;;;;;14.98;7.57;;;;;;;;;;4164516;34;20206;-60
2020/12/15 13:43:34;;;;;;;18.98;7.10;;;;;;;;;;4164508;34;20118;-60
2020/12/15 13:46:00;;;;;;;20.95;6.72;;;;;;;;;;4164232;34;20129;-63
2020/12/15 13:48:27;;;;;;;15.10;6.37;;;;;;;;;;4164434;34;20122;-64
2020/12/15 13:50:53;;;;;;;13.32;6.25;;;;;;;;;;4164396;34;20114;-60
2020/12/15 13:53:19;;;;;;;13.57;6.75;;;;;;;;;;4163259;34;20183;-63
2020/12/15 13:55:45;;;;;;;14.20;6.70;;;;;;;;;;4164356;34;20099;-60
2020/12/15 13:58:11;;;;;;;12.85;6.32;;;;;;;;;;4164364;34;20273;-63
2020/12/15 14:00:39;;;;;;;9.73;5.78;;;;;;;;;;4163768;34;20140;-62
2020/12/15 14:03:07;;;;;;;11.98;7.05;;;;;;;;;;4163826;34;20146;-60
2020/12/15 14:05:33;;;;;;;15.75;6.85;;;;;;;;;;4164261;34;20099;-59
2020/12/15 14:07:59;;;;;;;13.07;6.82;;;;;;;;;;4164027;34;20107;-60
2020/12/15 14:10:25;;;;;;;15.68;8.20;;;;;;;;;;4163729;34;20129;-59
2020/12/15 14:12:51;;;;;;;16.30;8.25;;;;;;;;;;4164156;34;20519;-58
2020/12/15 14:15:16;;;;;;;14.10;8.25;;;;;;;;;;4173046;34;20450;-61
2020/12/15 14:17:43;;;;;;;14.68;9.38;;;;;;;;;;4177608;34;20106;-61
2020/12/15 14:20:09;;;;;;;13.57;8.40;;;;;;;;;;4177645;34;20110;-61
2020/12/15 14:22:35;;;;;;;16.05;7.95;;;;;;;;;;4177961;34;20149;-61
2020/12/15 14:25:01;;;;;;;19.62;7.87;;;;;;;;;;4176723;34;20126;-62
2020/12/15 14:27:27;;;;;;;16.58;8.38;;;;;;;;;;4177688;34;20117;-60
2020/12/15 14:29:53;;;;;;;10.45;6.75;;;;;;;;;;4164764;34;20217;-59
2020/12/15 14:32:19;;;;;;;11.35;7.82;;;;;;;;;;4177577;34;20130;-58
2020/12/15 14:34:44;;;;;;;16.35;6.78;;;;;;;;;;4176924;34;20127;-62
2020/12/15 14:37:10;;;;;;;15.90;7.80;;;;;;;;;;4177519;34;20527;-62
2020/12/15 14:39:36;;;;;;;11.88;7.57;;;;;;;;;;4177234;34;20130;-60
2020/12/15 14:42:03;;;;;;;15.70;8.07;;;;;;;;;;4177511;34;20214;-60